Terminal Aerodrome Forecast
Issued by NWS

Home | Current Version | Previous Version | Text Only | Print | Product List | Glossary On
Versions: 1 2 3 4 5 6 7 8 9 10 11 12 13 14 15 16
000
FTUS44 KBMX 081212 AAA
TAFTOI
TAF AMD
KTOI 081212Z 0812/0912 32005KT P6SM SKC
     FM081300 34005KT P6SM OVC050
     FM081700 34012G21KT P6SM BKN200
     FM090000 35009KT P6SM BKN250=

USA.gov is the U.S. government's official web portal to all federal, state and local government web resources and services.